sensor_id;sensor_type;location;lat;lon;timestamp;temperature;humidity
10129;DHT22;5104;50.720;7.044;2023-04-25T00:00:15;8.50;99.90
10129;DHT22;5104;50.720;7.044;2023-04-25T00:02:42;8.40;99.90
10129;DHT22;5104;50.720;7.044;2023-04-25T00:05:09;8.40;15.40
10129;DHT22;5104;50.720;7.044;2023-04-25T00:07:36;8.40;1.00
10129;DHT22;5104;50.720;7.044;2023-04-25T00:10:05;8.40;99.90
10129;DHT22;5104;50.720;7.044;2023-04-25T00:12:32;8.30;99.90
10129;DHT22;5104;50.720;7.044;2023-04-25T00:14:59;8.30;99.90
10129;DHT22;5104;50.720;7.044;2023-04-25T00:17:27;8.30;76.00
10129;DHT22;5104;50.720;7.044;2023-04-25T00:19:55;8.20;99.90
10129;DHT22;5104;50.720;7.044;2023-04-25T00:22:23;8.10;72.50
10129;DHT22;5104;50.720;7.044;2023-04-25T00:24:50;8.10;99.90
10129;DHT22;5104;50.720;7.044;2023-04-25T00:27:19;8.10;99.90
10129;DHT22;5104;50.720;7.044;2023-04-25T00:29:45;8.00;1.00
10129;DHT22;5104;50.720;7.044;2023-04-25T00:32:12;8.00;1.00
10129;DHT22;5104;50.720;7.044;2023-04-25T00:34:40;7.90;1.00
10129;DHT22;5104;50.720;7.044;2023-04-25T00:37:07;7.90;1.00
10129;DHT22;5104;50.720;7.044;2023-04-25T00:39:34;7.90;1.00
10129;DHT22;5104;50.720;7.044;2023-04-25T00:42:02;7.80;99.90
10129;DHT22;5104;50.720;7.044;2023-04-25T00:44:29;7.70;99.90
10129;DHT22;5104;50.720;7.044;2023-04-25T00:46:57;7.70;1.00
10129;DHT22;5104;50.720;7.044;2023-04-25T00:49:24;7.60;1.00
10129;DHT22;5104;50.720;7.044;2023-04-25T00:51:52;7.60;1.00
10129;DHT22;5104;50.720;7.044;2023-04-25T00:54:20;7.60;1.00
10129;DHT22;5104;50.720;7.044;2023-04-25T00:56:47;7.50;1.00
10129;DHT22;5104;50.720;7.044;2023-04-25T00:59:15;7.50;99.90
10129;DHT22;5104;50.720;7.044;2023-04-25T01:01:43;7.40;1.00
10129;DHT22;5104;50.720;7.044;2023-04-25T01:04:10;7.40;99.90
10129;DHT22;5104;50.720;7.044;2023-04-25T01:06:37;7.30;99.90
10129;DHT22;5104;50.720;7.044;2023-04-25T01:09:06;7.30;99.90
10129;DHT22;5104;50.720;7.044;2023-04-25T01:11:33;7.20;99.90
10129;DHT22;5104;50.720;7.044;2023-04-25T01:14:00;7.10;1.00
10129;DHT22;5104;50.720;7.044;2023-04-25T01:16:27;7.10;3.00
10129;DHT22;5104;50.720;7.044;2023-04-25T01:18:54;7.10;1.00
10129;DHT22;5104;50.720;7.044;2023-04-25T01:21:23;7.00;10.40
10129;DHT22;5104;50.720;7.044;2023-04-25T01:23:53;7.10;81.30
10129;DHT22;5104;50.720;7.044;2023-04-25T01:26:21;7.00;1.00
10129;DHT22;5104;50.720;7.044;2023-04-25T01:28:49;7.00;99.90
10129;DHT22;5104;50.720;7.044;2023-04-25T01:31:17;7.00;99.90
10129;DHT22;5104;50.720;7.044;2023-04-25T01:33:44;7.00;99.90
10129;DHT22;5104;50.720;7.044;2023-04-25T01:36:11;6.90;1.00
10129;DHT22;5104;50.720;7.044;2023-04-25T01:38:40;6.80;99.90
10129;DHT22;5104;50.720;7.044;2023-04-25T01:41:07;6.70;99.90
10129;DHT22;5104;50.720;7.044;2023-04-25T01:43:34;6.70;50.00
10129;DHT22;5104;50.720;7.044;2023-04-25T01:46:02;6.70;1.00
10129;DHT22;5104;50.720;7.044;2023-04-25T01:48:29;6.70;99.90
10129;DHT22;5104;50.720;7.044;2023-04-25T01:50:56;6.70;47.90
10129;DHT22;5104;50.720;7.044;2023-04-25T01:53:23;6.60;99.90
10129;DHT22;5104;50.720;7.044;2023-04-25T01:55:51;6.60;1.00
10129;DHT22;5104;50.720;7.044;2023-04-25T01:58:18;6.50;99.90
10129;DHT22;5104;50.720;7.044;2023-04-25T02:00:46;6.50;1.00
10129;DHT22;5104;50.720;7.044;2023-04-25T02:03:13;6.40;1.00
10129;DHT22;5104;50.720;7.044;2023-04-25T02:05:40;6.40;1.00
10129;DHT22;5104;50.720;7.044;2023-04-25T02:08:10;6.30;99.90
10129;DHT22;5104;50.720;7.044;2023-04-25T02:10:36;6.30;99.90
10129;DHT22;5104;50.720;7.044;2023-04-25T02:13:05;6.30;1.00
10129;DHT22;5104;50.720;7.044;2023-04-25T02:15:32;6.20;1.00
10129;DHT22;5104;50.720;7.044;2023-04-25T02:17:59;6.20;1.00
10129;DHT22;5104;50.720;7.044;2023-04-25T02:20:27;6.20;1.00
10129;DHT22;5104;50.720;7.044;2023-04-25T02:22:54;6.10;1.00
10129;DHT22;5104;50.720;7.044;2023-04-25T02:25:21;6.10;1.00
10129;DHT22;5104;50.720;7.044;2023-04-25T02:27:48;6.10;86.60
10129;DHT22;5104;50.720;7.044;2023-04-25T02:30:18;6.10;99.90
10129;DHT22;5104;50.720;7.044;2023-04-25T02:32:45;6.10;99.90
10129;DHT22;5104;50.720;7.044;2023-04-25T02:35:12;6.10;1.00
10129;DHT22;5104;50.720;7.044;2023-04-25T02:37:39;6.10;1.00
10129;DHT22;5104;50.720;7.044;2023-04-25T02:40:07;6.00;97.60
10129;DHT22;5104;50.720;7.044;2023-04-25T02:42:34;6.10;97.10
10129;DHT22;5104;50.720;7.044;2023-04-25T02:45:01;6.10;99.90
10129;DHT22;5104;50.720;7.044;2023-04-25T02:47:30;6.20;99.90
10129;DHT22;5104;50.720;7.044;2023-04-25T02:49:57;6.20;99.90
10129;DHT22;5104;50.720;7.044;2023-04-25T02:52:24;6.20;1.00
10129;DHT22;5104;50.720;7.044;2023-04-25T02:54:51;6.20;99.90
10129;DHT22;5104;50.720;7.044;2023-04-25T02:57:18;6.20;1.00
10129;DHT22;5104;50.720;7.044;2023-04-25T02:59:45;6.20;1.00
10129;DHT22;5104;50.720;7.044;2023-04-25T03:02:12;6.20;99.90
10129;DHT22;5104;50.720;7.044;2023-04-25T03:04:40;6.20;99.90
10129;DHT22;5104;50.720;7.044;2023-04-25T03:07:07;6.20;1.00
10129;DHT22;5104;50.720;7.044;2023-04-25T03:09:34;6.20;1.00
10129;DHT22;5104;50.720;7.044;2023-04-25T03:12:01;6.20;99.90
10129;DHT22;5104;50.720;7.044;2023-04-25T03:14:28;6.20;99.90
10129;DHT22;5104;50.720;7.044;2023-04-25T03:16:55;6.20;1.00
10129;DHT22;5104;50.720;7.044;2023-04-25T03:19:22;6.20;1.00
10129;DHT22;5104;50.720;7.044;2023-04-25T03:21:50;6.20;99.90
10129;DHT22;5104;50.720;7.044;2023-04-25T03:24:17;6.20;99.90
10129;DHT22;5104;50.720;7.044;2023-04-25T03:26:44;6.10;99.90
10129;DHT22;5104;50.720;7.044;2023-04-25T03:29:10;6.10;99.90
10129;DHT22;5104;50.720;7.044;2023-04-25T03:31:38;6.10;99.90
10129;DHT22;5104;50.720;7.044;2023-04-25T03:34:05;6.10;99.90
10129;DHT22;5104;50.720;7.044;2023-04-25T03:36:32;6.10;1.00
10129;DHT22;5104;50.720;7.044;2023-04-25T03:39:00;6.10;89.80
10129;DHT22;5104;50.720;7.044;2023-04-25T03:41:27;6.10;1.00
10129;DHT22;5104;50.720;7.044;2023-04-25T03:43:55;6.10;1.00
10129;DHT22;5104;50.720;7.044;2023-04-25T03:46:22;6.10;99.90
10129;DHT22;5104;50.720;7.044;2023-04-25T03:48:49;6.00;1.00
10129;DHT22;5104;50.720;7.044;2023-04-25T03:51:15;6.00;1.00
10129;DHT22;5104;50.720;7.044;2023-04-25T03:53:42;6.10;99.90
10129;DHT22;5104;50.720;7.044;2023-04-25T03:56:10;6.10;1.00
10129;DHT22;5104;50.720;7.044;2023-04-25T03:58:37;6.10;1.00
10129;DHT22;5104;50.720;7.044;2023-04-25T04:01:04;6.10;1.00
10129;DHT22;5104;50.720;7.044;2023-04-25T04:03:33;6.20;99.90
10129;DHT22;5104;50.720;7.044;2023-04-25T04:06:00;6.20;99.90
10129;DHT22;5104;50.720;7.044;2023-04-25T04:08:28;6.20;5.60
10129;DHT22;5104;50.720;7.044;2023-04-25T04:10:55;6.30;1.00
10129;DHT22;5104;50.720;7.044;2023-04-25T04:13:23;6.30;99.90
10129;DHT22;5104;50.720;7.044;2023-04-25T04:15:50;6.30;18.80
10129;DHT22;5104;50.720;7.044;2023-04-25T04:18:17;6.30;99.90
10129;DHT22;5104;50.720;7.044;2023-04-25T04:20:44;6.30;99.90
10129;DHT22;5104;50.720;7.044;2023-04-25T04:23:11;6.40;1.00
10129;DHT22;5104;50.720;7.044;2023-04-25T04:25:38;6.40;1.00
10129;DHT22;5104;50.720;7.044;2023-04-25T04:28:06;6.40;99.00
10129;DHT22;5104;50.720;7.044;2023-04-25T04:30:34;6.50;1.00
10129;DHT22;5104;50.720;7.044;2023-04-25T04:33:03;6.60;1.00
10129;DHT22;5104;50.720;7.044;2023-04-25T04:35:30;6.60;1.00
10129;DHT22;5104;50.720;7.044;2023-04-25T04:37:57;6.70;1.00
10129;DHT22;5104;50.720;7.044;2023-04-25T04:40:24;6.80;99.90
10129;DHT22;5104;50.720;7.044;2023-04-25T04:42:51;6.80;99.90
10129;DHT22;5104;50.720;7.044;2023-04-25T04:45:18;6.80;99.90
10129;DHT22;5104;50.720;7.044;2023-04-25T04:47:47;6.90;55.50
10129;DHT22;5104;50.720;7.044;2023-04-25T04:50:15;6.90;99.90
10129;DHT22;5104;50.720;7.044;2023-04-25T04:52:42;6.90;99.90
10129;DHT22;5104;50.720;7.044;2023-04-25T04:55:09;7.00;1.00
10129;DHT22;5104;50.720;7.044;2023-04-25T04:57:36;7.00;99.90
10129;DHT22;5104;50.720;7.044;2023-04-25T05:00:05;7.00;1.00
10129;DHT22;5104;50.720;7.044;2023-04-25T05:02:36;7.00;99.90
10129;DHT22;5104;50.720;7.044;2023-04-25T05:05:05;7.10;1.00
10129;DHT22;5104;50.720;7.044;2023-04-25T05:07:31;7.20;1.00
10129;DHT22;5104;50.720;7.044;2023-04-25T05:09:58;7.20;99.90
10129;DHT22;5104;50.720;7.044;2023-04-25T05:12:25;7.30;99.90
10129;DHT22;5104;50.720;7.044;2023-04-25T05:14:53;7.40;18.60
10129;DHT22;5104;50.720;7.044;2023-04-25T05:17:20;7.50;1.00
10129;DHT22;5104;50.720;7.044;2023-04-25T05:19:46;7.60;1.00
10129;DHT22;5104;50.720;7.044;2023-04-25T05:22:15;7.70;99.90
10129;DHT22;5104;50.720;7.044;2023-04-25T05:24:41;7.80;1.00
10129;DHT22;5104;50.720;7.044;2023-04-25T05:27:08;7.90;1.00
10129;DHT22;5104;50.720;7.044;2023-04-25T05:29:35;7.80;1.00
10129;DHT22;5104;50.720;7.044;2023-04-25T05:32:02;7.90;1.00
10129;DHT22;5104;50.720;7.044;2023-04-25T05:34:29;7.90;1.00
10129;DHT22;5104;50.720;7.044;2023-04-25T05:36:56;8.00;99.90
10129;DHT22;5104;50.720;7.044;2023-04-25T05:39:24;8.00;99.90
10129;DHT22;5104;50.720;7.044;2023-04-25T05:41:52;8.00;99.90
10129;DHT22;5104;50.720;7.044;2023-04-25T05:44:19;8.10;99.90
10129;DHT22;5104;50.720;7.044;2023-04-25T05:46:45;8.10;72.50
10129;DHT22;5104;50.720;7.044;2023-04-25T05:49:13;8.10;99.90
10129;DHT22;5104;50.720;7.044;2023-04-25T05:51:40;8.10;99.90
10129;DHT22;5104;50.720;7.044;2023-04-25T05:54:06;8.10;99.90
10129;DHT22;5104;50.720;7.044;2023-04-25T05:56:35;8.10;99.90
10129;DHT22;5104;50.720;7.044;2023-04-25T05:59:01;8.10;99.90
10129;DHT22;5104;50.720;7.044;2023-04-25T06:01:28;8.00;1.00
10129;DHT22;5104;50.720;7.044;2023-04-25T06:03:55;8.10;99.90
10129;DHT22;5104;50.720;7.044;2023-04-25T06:06:22;8.20;1.00
10129;DHT22;5104;50.720;7.044;2023-04-25T06:08:49;8.40;99.90
10129;DHT22;5104;50.720;7.044;2023-04-25T06:11:16;8.60;1.00
10129;DHT22;5104;50.720;7.044;2023-04-25T06:13:45;8.70;1.00
10129;DHT22;5104;50.720;7.044;2023-04-25T06:16:12;8.80;99.90
10129;DHT22;5104;50.720;7.044;2023-04-25T06:18:39;8.80;1.00
10129;DHT22;5104;50.720;7.044;2023-04-25T06:21:05;8.90;99.90
10129;DHT22;5104;50.720;7.044;2023-04-25T06:23:32;8.80;99.90
10129;DHT22;5104;50.720;7.044;2023-04-25T06:25:59;8.80;99.90
10129;DHT22;5104;50.720;7.044;2023-04-25T06:28:26;8.90;99.90
10129;DHT22;5104;50.720;7.044;2023-04-25T06:30:55;9.10;99.90
10129;DHT22;5104;50.720;7.044;2023-04-25T06:33:21;9.10;1.00
10129;DHT22;5104;50.720;7.044;2023-04-25T06:35:49;9.10;1.00
10129;DHT22;5104;50.720;7.044;2023-04-25T06:38:16;9.00;1.00
10129;DHT22;5104;50.720;7.044;2023-04-25T06:40:43;9.10;1.00
10129;DHT22;5104;50.720;7.044;2023-04-25T06:43:10;9.20;1.00
10129;DHT22;5104;50.720;7.044;2023-04-25T06:45:37;9.30;1.00
10129;DHT22;5104;50.720;7.044;2023-04-25T06:48:05;9.30;1.00
10129;DHT22;5104;50.720;7.044;2023-04-25T06:50:33;9.40;99.90
10129;DHT22;5104;50.720;7.044;2023-04-25T06:52:59;9.40;99.90
10129;DHT22;5104;50.720;7.044;2023-04-25T06:55:27;9.30;99.90
10129;DHT22;5104;50.720;7.044;2023-04-25T06:57:54;9.30;99.90
10129;DHT22;5104;50.720;7.044;2023-04-25T07:00:21;9.50;99.90
10129;DHT22;5104;50.720;7.044;2023-04-25T07:02:48;9.50;1.00
10129;DHT22;5104;50.720;7.044;2023-04-25T07:05:17;9.40;54.90
10129;DHT22;5104;50.720;7.044;2023-04-25T07:07:44;9.70;1.00
10129;DHT22;5104;50.720;7.044;2023-04-25T07:10:10;9.60;1.00
10129;DHT22;5104;50.720;7.044;2023-04-25T07:12:37;9.40;1.00
10129;DHT22;5104;50.720;7.044;2023-04-25T07:15:05;9.50;27.60
10129;DHT22;5104;50.720;7.044;2023-04-25T07:17:35;9.50;1.90
10129;DHT22;5104;50.720;7.044;2023-04-25T07:20:02;9.50;1.00
10129;DHT22;5104;50.720;7.044;2023-04-25T07:22:32;9.60;1.00
10129;DHT22;5104;50.720;7.044;2023-04-25T07:24:59;9.60;1.00
10129;DHT22;5104;50.720;7.044;2023-04-25T07:27:26;9.70;1.00
10129;DHT22;5104;50.720;7.044;2023-04-25T07:29:53;9.90;1.00
10129;DHT22;5104;50.720;7.044;2023-04-25T07:32:20;10.00;1.00
10129;DHT22;5104;50.720;7.044;2023-04-25T07:34:47;10.10;1.00
10129;DHT22;5104;50.720;7.044;2023-04-25T07:37:14;10.40;1.00
10129;DHT22;5104;50.720;7.044;2023-04-25T07:39:42;10.60;1.00
10129;DHT22;5104;50.720;7.044;2023-04-25T07:42:09;10.60;1.00
10129;DHT22;5104;50.720;7.044;2023-04-25T07:44:36;10.50;1.00
10129;DHT22;5104;50.720;7.044;2023-04-25T07:47:04;10.40;1.00
10129;DHT22;5104;50.720;7.044;2023-04-25T07:49:33;10.50;1.00
10129;DHT22;5104;50.720;7.044;2023-04-25T07:52:01;10.30;1.00
10129;DHT22;5104;50.720;7.044;2023-04-25T07:54:28;10.70;1.00
10129;DHT22;5104;50.720;7.044;2023-04-25T07:56:56;11.00;99.90
10129;DHT22;5104;50.720;7.044;2023-04-25T07:59:23;11.10;99.90
10129;DHT22;5104;50.720;7.044;2023-04-25T08:01:50;11.20;99.90
10129;DHT22;5104;50.720;7.044;2023-04-25T08:04:17;11.20;99.90
10129;DHT22;5104;50.720;7.044;2023-04-25T08:06:44;11.00;99.90
10129;DHT22;5104;50.720;7.044;2023-04-25T08:09:12;11.00;99.90
10129;DHT22;5104;50.720;7.044;2023-04-25T08:11:38;11.20;99.90
10129;DHT22;5104;50.720;7.044;2023-04-25T08:14:07;11.00;99.90
10129;DHT22;5104;50.720;7.044;2023-04-25T08:16:34;11.00;99.90
10129;DHT22;5104;50.720;7.044;2023-04-25T08:19:01;10.60;99.90
10129;DHT22;5104;50.720;7.044;2023-04-25T08:21:27;10.60;99.90
10129;DHT22;5104;50.720;7.044;2023-04-25T08:23:55;10.30;99.90
10129;DHT22;5104;50.720;7.044;2023-04-25T08:26:22;10.30;99.90
10129;DHT22;5104;50.720;7.044;2023-04-25T08:28:49;10.30;99.90
10129;DHT22;5104;50.720;7.044;2023-04-25T08:31:18;10.30;99.90
10129;DHT22;5104;50.720;7.044;2023-04-25T08:33:45;10.20;99.90
10129;DHT22;5104;50.720;7.044;2023-04-25T08:36:12;10.00;99.90
10129;DHT22;5104;50.720;7.044;2023-04-25T08:38:39;9.90;99.90
10129;DHT22;5104;50.720;7.044;2023-04-25T08:41:06;9.90;99.90
10129;DHT22;5104;50.720;7.044;2023-04-25T08:43:34;9.70;99.90
10129;DHT22;5104;50.720;7.044;2023-04-25T08:46:02;9.70;99.90
10129;DHT22;5104;50.720;7.044;2023-04-25T08:48:33;9.80;99.90
10129;DHT22;5104;50.720;7.044;2023-04-25T08:51:02;9.80;99.90
10129;DHT22;5104;50.720;7.044;2023-04-25T08:53:30;10.00;99.90
10129;DHT22;5104;50.720;7.044;2023-04-25T08:55:59;10.30;99.90
10129;DHT22;5104;50.720;7.044;2023-04-25T08:58:27;10.40;99.90
10129;DHT22;5104;50.720;7.044;2023-04-25T09:00:54;10.40;99.90
10129;DHT22;5104;50.720;7.044;2023-04-25T09:03:22;10.70;99.90
10129;DHT22;5104;50.720;7.044;2023-04-25T09:05:51;10.80;99.90
10129;DHT22;5104;50.720;7.044;2023-04-25T09:08:18;11.10;99.90
10129;DHT22;5104;50.720;7.044;2023-04-25T09:10:45;11.40;99.90
10129;DHT22;5104;50.720;7.044;2023-04-25T09:13:14;12.00;99.90
10129;DHT22;5104;50.720;7.044;2023-04-25T09:15:49;12.30;99.40
10129;DHT22;5104;50.720;7.044;2023-04-25T09:18:23;12.40;28.50
10129;DHT22;5104;50.720;7.044;2023-04-25T09:20:53;12.40;13.50
10129;DHT22;5104;50.720;7.044;2023-04-25T09:23:21;12.00;1.00
10129;DHT22;5104;50.720;7.044;2023-04-25T09:25:50;12.30;1.00
10129;DHT22;5104;50.720;7.044;2023-04-25T09:28:23;11.90;1.00
10129;DHT22;5104;50.720;7.044;2023-04-25T09:30:55;11.80;1.00
10129;DHT22;5104;50.720;7.044;2023-04-25T09:33:28;11.70;1.00
10129;DHT22;5104;50.720;7.044;2023-04-25T09:36:03;11.40;12.70
10129;DHT22;5104;50.720;7.044;2023-04-25T09:38:31;11.20;24.80
10129;DHT22;5104;50.720;7.044;2023-04-25T09:40:58;10.90;25.00
10129;DHT22;5104;50.720;7.044;2023-04-25T09:43:27;11.00;59.40
10129;DHT22;5104;50.720;7.044;2023-04-25T09:45:55;11.20;22.90
10129;DHT22;5104;50.720;7.044;2023-04-25T09:48:25;11.40;4.10
10129;DHT22;5104;50.720;7.044;2023-04-25T09:51:06;11.90;1.00
10129;DHT22;5104;50.720;7.044;2023-04-25T09:53:33;11.90;1.00
10129;DHT22;5104;50.720;7.044;2023-04-25T09:56:03;12.20;1.00
10129;DHT22;5104;50.720;7.044;2023-04-25T09:58:32;12.20;1.00
10129;DHT22;5104;50.720;7.044;2023-04-25T10:01:01;12.30;1.00
10129;DHT22;5104;50.720;7.044;2023-04-25T10:03:30;12.40;1.00
10129;DHT22;5104;50.720;7.044;2023-04-25T10:05:59;12.00;1.00
10129;DHT22;5104;50.720;7.044;2023-04-25T10:08:32;11.90;1.00
10129;DHT22;5104;50.720;7.044;2023-04-25T10:11:01;11.90;1.00
10129;DHT22;5104;50.720;7.044;2023-04-25T10:13:29;11.80;1.00
10129;DHT22;5104;50.720;7.044;2023-04-25T10:15:57;11.80;1.00
10129;DHT22;5104;50.720;7.044;2023-04-25T10:18:25;11.40;1.00
10129;DHT22;5104;50.720;7.044;2023-04-25T10:20:55;10.90;1.00
10129;DHT22;5104;50.720;7.044;2023-04-25T10:23:23;10.80;1.00
10129;DHT22;5104;50.720;7.044;2023-04-25T10:25:52;10.70;1.00
10129;DHT22;5104;50.720;7.044;2023-04-25T10:28:20;10.80;1.00
10129;DHT22;5104;50.720;7.044;2023-04-25T10:31:00;11.00;1.00
10129;DHT22;5104;50.720;7.044;2023-04-25T10:33:33;11.20;1.00
10129;DHT22;5104;50.720;7.044;2023-04-25T10:36:12;11.50;1.00
10129;DHT22;5104;50.720;7.044;2023-04-25T10:38:42;12.30;1.00
10129;DHT22;5104;50.720;7.044;2023-04-25T10:41:12;12.80;1.00
10129;DHT22;5104;50.720;7.044;2023-04-25T10:43:40;12.80;1.00
10129;DHT22;5104;50.720;7.044;2023-04-25T10:46:17;12.90;1.00
10129;DHT22;5104;50.720;7.044;2023-04-25T10:48:46;12.50;1.00
10129;DHT22;5104;50.720;7.044;2023-04-25T10:51:19;12.30;1.00
10129;DHT22;5104;50.720;7.044;2023-04-25T10:53:48;12.40;1.00
10129;DHT22;5104;50.720;7.044;2023-04-25T10:56:26;12.20;1.00
10129;DHT22;5104;50.720;7.044;2023-04-25T10:59:04;11.80;1.00
10129;DHT22;5104;50.720;7.044;2023-04-25T11:01:37;11.20;1.00
10129;DHT22;5104;50.720;7.044;2023-04-25T11:04:04;11.20;1.00
10129;DHT22;5104;50.720;7.044;2023-04-25T11:06:40;11.30;1.00
10129;DHT22;5104;50.720;7.044;2023-04-25T11:09:11;11.10;1.00
10129;DHT22;5104;50.720;7.044;2023-04-25T11:11:40;11.20;1.00
10129;DHT22;5104;50.720;7.044;2023-04-25T11:14:07;11.30;1.00
10129;DHT22;5104;50.720;7.044;2023-04-25T11:16:34;11.10;1.00
10129;DHT22;5104;50.720;7.044;2023-04-25T11:19:02;11.20;1.00
10129;DHT22;5104;50.720;7.044;2023-04-25T11:21:30;11.50;1.00
10129;DHT22;5104;50.720;7.044;2023-04-25T11:23:57;11.80;1.00
10129;DHT22;5104;50.720;7.044;2023-04-25T11:26:24;12.30;1.00
10129;DHT22;5104;50.720;7.044;2023-04-25T11:28:57;12.90;1.00
10129;DHT22;5104;50.720;7.044;2023-04-25T11:31:25;12.80;1.00
10129;DHT22;5104;50.720;7.044;2023-04-25T11:33:53;12.40;1.00
10129;DHT22;5104;50.720;7.044;2023-04-25T11:36:20;12.50;1.00
10129;DHT22;5104;50.720;7.044;2023-04-25T11:38:49;12.00;1.00
10129;DHT22;5104;50.720;7.044;2023-04-25T11:41:17;11.60;1.00
10129;DHT22;5104;50.720;7.044;2023-04-25T11:43:44;11.40;1.00
10129;DHT22;5104;50.720;7.044;2023-04-25T11:46:12;10.90;1.00
10129;DHT22;5104;50.720;7.044;2023-04-25T11:48:40;10.20;1.00
10129;DHT22;5104;50.720;7.044;2023-04-25T11:51:07;10.20;25.50
10129;DHT22;5104;50.720;7.044;2023-04-25T11:53:34;10.20;29.40
10129;DHT22;5104;50.720;7.044;2023-04-25T11:56:01;10.20;39.80
10129;DHT22;5104;50.720;7.044;2023-04-25T11:58:57;10.20;47.40
10129;DHT22;5104;50.720;7.044;2023-04-25T12:01:29;10.20;66.50
10129;DHT22;5104;50.720;7.044;2023-04-25T12:03:56;10.20;52.60
10129;DHT22;5104;50.720;7.044;2023-04-25T12:06:26;10.40;11.60
10129;DHT22;5104;50.720;7.044;2023-04-25T12:09:01;10.50;1.00
10129;DHT22;5104;50.720;7.044;2023-04-25T12:11:30;10.60;1.00
10129;DHT22;5104;50.720;7.044;2023-04-25T12:14:02;10.90;1.00
10129;DHT22;5104;50.720;7.044;2023-04-25T12:16:40;11.40;1.00
10129;DHT22;5104;50.720;7.044;2023-04-25T12:19:07;11.80;1.00
10129;DHT22;5104;50.720;7.044;2023-04-25T12:21:34;11.90;1.00
10129;DHT22;5104;50.720;7.044;2023-04-25T12:24:10;12.30;1.00
10129;DHT22;5104;50.720;7.044;2023-04-25T12:26:51;12.30;1.00
10129;DHT22;5104;50.720;7.044;2023-04-25T12:29:20;11.80;1.00
10129;DHT22;5104;50.720;7.044;2023-04-25T12:31:49;11.90;1.00
10129;DHT22;5104;50.720;7.044;2023-04-25T12:34:16;12.00;1.00
10129;DHT22;5104;50.720;7.044;2023-04-25T12:36:43;11.70;1.00
10129;DHT22;5104;50.720;7.044;2023-04-25T12:39:15;11.70;1.00
10129;DHT22;5104;50.720;7.044;2023-04-25T12:41:42;11.60;1.00
10129;DHT22;5104;50.720;7.044;2023-04-25T12:44:09;11.80;1.00
10129;DHT22;5104;50.720;7.044;2023-04-25T12:46:37;12.00;1.00
10129;DHT22;5104;50.720;7.044;2023-04-25T12:49:05;12.00;1.00
10129;DHT22;5104;50.720;7.044;2023-04-25T12:51:33;12.10;1.00
10129;DHT22;5104;50.720;7.044;2023-04-25T12:54:00;12.20;1.00
10129;DHT22;5104;50.720;7.044;2023-04-25T12:56:27;12.30;1.00
10129;DHT22;5104;50.720;7.044;2023-04-25T12:58:54;12.60;1.00
10129;DHT22;5104;50.720;7.044;2023-04-25T13:01:21;13.10;1.00
10129;DHT22;5104;50.720;7.044;2023-04-25T13:03:48;13.50;1.00
10129;DHT22;5104;50.720;7.044;2023-04-25T13:06:18;13.80;1.00
10129;DHT22;5104;50.720;7.044;2023-04-25T13:08:45;14.00;1.00
10129;DHT22;5104;50.720;7.044;2023-04-25T13:11:12;14.00;1.00
10129;DHT22;5104;50.720;7.044;2023-04-25T13:13:40;13.90;1.00
10129;DHT22;5104;50.720;7.044;2023-04-25T13:16:07;13.60;1.00
10129;DHT22;5104;50.720;7.044;2023-04-25T13:18:35;13.40;1.00
10129;DHT22;5104;50.720;7.044;2023-04-25T13:21:02;13.10;1.00
10129;DHT22;5104;50.720;7.044;2023-04-25T13:23:31;12.60;1.00
10129;DHT22;5104;50.720;7.044;2023-04-25T13:25:58;12.30;1.00
10129;DHT22;5104;50.720;7.044;2023-04-25T13:28:27;12.00;1.00
10129;DHT22;5104;50.720;7.044;2023-04-25T13:33:29;11.50;1.00
10129;DHT22;5104;50.720;7.044;2023-04-25T13:35:56;11.40;1.00
10129;DHT22;5104;50.720;7.044;2023-04-25T13:38:24;11.30;1.00
10129;DHT22;5104;50.720;7.044;2023-04-25T13:40:53;11.20;1.00
10129;DHT22;5104;50.720;7.044;2023-04-25T13:43:20;11.00;1.00
10129;DHT22;5104;50.720;7.044;2023-04-25T13:45:47;10.90;1.00
10129;DHT22;5104;50.720;7.044;2023-04-25T13:48:14;10.80;1.00
10129;DHT22;5104;50.720;7.044;2023-04-25T13:50:41;10.80;1.00
10129;DHT22;5104;50.720;7.044;2023-04-25T13:53:08;10.90;1.00
10129;DHT22;5104;50.720;7.044;2023-04-25T13:55:35;10.90;1.00
10129;DHT22;5104;50.720;7.044;2023-04-25T13:58:04;11.00;1.00
10129;DHT22;5104;50.720;7.044;2023-04-25T14:00:34;11.00;1.00
10129;DHT22;5104;50.720;7.044;2023-04-25T14:03:02;10.90;1.00
10129;DHT22;5104;50.720;7.044;2023-04-25T14:05:32;11.00;1.00
10129;DHT22;5104;50.720;7.044;2023-04-25T14:08:04;11.10;1.00
10129;DHT22;5104;50.720;7.044;2023-04-25T14:10:31;11.10;1.00
10129;DHT22;5104;50.720;7.044;2023-04-25T14:12:58;11.30;1.00
10129;DHT22;5104;50.720;7.044;2023-04-25T14:15:27;11.30;1.00
10129;DHT22;5104;50.720;7.044;2023-04-25T14:17:54;11.60;1.00
10129;DHT22;5104;50.720;7.044;2023-04-25T14:20:21;12.00;1.00
10129;DHT22;5104;50.720;7.044;2023-04-25T14:22:49;12.10;1.00
10129;DHT22;5104;50.720;7.044;2023-04-25T14:25:17;12.20;1.00
10129;DHT22;5104;50.720;7.044;2023-04-25T14:27:44;12.50;1.00
10129;DHT22;5104;50.720;7.044;2023-04-25T14:30:15;12.60;1.00
10129;DHT22;5104;50.720;7.044;2023-04-25T14:32:43;12.80;1.00
10129;DHT22;5104;50.720;7.044;2023-04-25T14:35:11;12.80;1.00
10129;DHT22;5104;50.720;7.044;2023-04-25T14:37:38;12.90;1.00
10129;DHT22;5104;50.720;7.044;2023-04-25T14:40:06;13.00;1.00
10129;DHT22;5104;50.720;7.044;2023-04-25T14:42:36;13.50;1.00
10129;DHT22;5104;50.720;7.044;2023-04-25T14:45:03;14.40;1.00
10129;DHT22;5104;50.720;7.044;2023-04-25T14:47:30;15.40;1.00
10129;DHT22;5104;50.720;7.044;2023-04-25T14:49:58;15.80;1.00
10129;DHT22;5104;50.720;7.044;2023-04-25T14:52:25;16.10;1.00
10129;DHT22;5104;50.720;7.044;2023-04-25T14:54:52;15.70;1.00
10129;DHT22;5104;50.720;7.044;2023-04-25T14:57:19;15.10;1.00
10129;DHT22;5104;50.720;7.044;2023-04-25T14:59:46;14.50;1.00
10129;DHT22;5104;50.720;7.044;2023-04-25T15:02:13;14.10;1.00
10129;DHT22;5104;50.720;7.044;2023-04-25T15:04:40;13.80;1.00
10129;DHT22;5104;50.720;7.044;2023-04-25T15:07:08;13.40;1.00
10129;DHT22;5104;50.720;7.044;2023-04-25T15:09:35;13.10;1.00
10129;DHT22;5104;50.720;7.044;2023-04-25T15:12:02;12.70;1.00
10129;DHT22;5104;50.720;7.044;2023-04-25T15:14:29;12.50;1.00
10129;DHT22;5104;50.720;7.044;2023-04-25T15:16:57;12.30;1.00
10129;DHT22;5104;50.720;7.044;2023-04-25T15:19:24;12.20;1.00
10129;DHT22;5104;50.720;7.044;2023-04-25T15:21:51;12.10;1.00
10129;DHT22;5104;50.720;7.044;2023-04-25T15:24:19;12.00;1.00
10129;DHT22;5104;50.720;7.044;2023-04-25T15:26:46;12.20;1.00
10129;DHT22;5104;50.720;7.044;2023-04-25T15:29:13;12.00;1.00
10129;DHT22;5104;50.720;7.044;2023-04-25T15:31:40;12.20;1.00
10129;DHT22;5104;50.720;7.044;2023-04-25T15:34:07;12.50;1.00
10129;DHT22;5104;50.720;7.044;2023-04-25T15:36:34;12.70;1.00
10129;DHT22;5104;50.720;7.044;2023-04-25T15:39:01;12.60;1.00
10129;DHT22;5104;50.720;7.044;2023-04-25T15:41:30;12.70;1.00
10129;DHT22;5104;50.720;7.044;2023-04-25T15:43:59;12.50;1.00
10129;DHT22;5104;50.720;7.044;2023-04-25T15:46:26;12.60;1.00
10129;DHT22;5104;50.720;7.044;2023-04-25T15:48:55;12.50;1.00
10129;DHT22;5104;50.720;7.044;2023-04-25T15:51:22;12.40;1.00
10129;DHT22;5104;50.720;7.044;2023-04-25T15:53:49;12.40;1.00
10129;DHT22;5104;50.720;7.044;2023-04-25T15:56:16;12.30;1.00
10129;DHT22;5104;50.720;7.044;2023-04-25T15:58:44;12.30;1.00
10129;DHT22;5104;50.720;7.044;2023-04-25T16:01:11;12.40;1.00
10129;DHT22;5104;50.720;7.044;2023-04-25T16:03:38;12.60;1.00
10129;DHT22;5104;50.720;7.044;2023-04-25T16:06:05;12.70;1.00
10129;DHT22;5104;50.720;7.044;2023-04-25T16:08:32;12.60;1.00
10129;DHT22;5104;50.720;7.044;2023-04-25T16:11:00;12.60;1.00